Capitol Logistics 204


EBLG
Liège Airport
Liege, BE
KIAD
Washington Dulles International Airport
Dulles, US

Activity Log

Date Flight Route Aircraft Duration
03/24/2020 CPX204 BUB7R BUB L608 DENUT L610 LAM/N0498F240 N57 TNT Q4 WAL/N0474F300 PENIL M144 BAGSO DOGAL/M081F320 NATB ALLRY/N0465F340 N358A EBONY/N0465F360 J573 ENE Q480 BAF HYPER7 B763 9h 13m
01/27/2020 CPX204 BUB7S BUB L608 DENUT L610 KOPUL Q60 LANON L18 LIPGO ADBUS RESNO 5620N 5730N 5740N 5650N JANJO N562A YRI N386B COVAN J563 ALB HYPER7 B763 9h 11m
01/04/2020 CPX204 BUB7S BUB L608 DENUT L610 KOPUL Q60 UGNUS L18 DIKAS P4 EVRIN LIMRI 5320N 5530N 5640N 5550N LOMSI N518A TAFFY PQI J55 ENE Q480 BAF HYPER7 B763 9h 32m
12/23/2019 CPX204 Not Available B763 8h 42m
06/22/2019 CPX204 Not Available B763 8h 31m
03/08/2019 CPX204 BUB UM624 TULIP UP1 GODOS P1 RODSI P58 MADAD UP18 ADN UN591 STN ELKOG RATSU 65N020W 68N030W 70N040W 71N050W NADMA YXP TEFFO VP 5Q RJ BAF B763 9h 47m
02/19/2019 CPX204 BUB7S BUB UM624 TULIP UP1 MONIL UY70 RAVLO Y70 SUPEL L90 OTR L602 NATEB Y96 TLA L602 GOW ERAKA/M082F320 NATA PIDSO N836A SINGA/N0470F320 N818A LAKES/N0475F340 N780A YBC J563 YRI J546 FLEUR BAF HYPER7 B763 9h 13m
02/07/2019 CPX204 BUB7S BUB UL608 DENUT UL610 RAPIX L610 LAM UL10 BPK Q295 CPT UL9 GAVGO UL18 DIKAS UL9 SLANY GISTI MALOT/M083F300 53N020W 53N030W 52N040W 50N050W/N0482F300 YQX/N0475F340 J577 YQY TUSKY/N0476F360 J575 BOS J42 LAURN MXE DELRO4 B763 8h 50m
01/14/2019 CPX204 BUB7S BUB UL608 DENUT UL610 RAPIX L610 LAM UL10 BPK Q295 CPT UL9 GAVGO UL18 DIKAS UL9 SLANY MALOT NATD RIKAL N438A TOPPS BAF HYPER7 B763 8h 27m
12/03/2018 CPX114 BUB7S BUB UL608 DENUT UL610 LAM UL179 CPT UL9 KENET UN14 BAKUR NEBIN 54N020W 54N030W 53N040W 51N050W ALLRY N358A EBONY J573 ENE Q480 BAF HYPER7 MD11 8h 48m
11/26/2018 CPX124 BUB UL608 SASKI UL179 LAM UN57 TNT UQ4 GIGTO M144 BAGSO REVNU RESNO 56N020W 57N030W 57N040W 55N050W LOMSI N615A EBONY J573 ENE Q480 BAF Q406 BWZ J6 LRP B763 7h 57m

Route Details

Aircraft Information
Primary: Boeing 767-300BDSF
Backup: Not Available
Route Data
Distance: 3422nm
Sched. Duration: 8h 30m
Avg. Duration: 8h 70m (+40m)
Times Flown: 11
Recm'd Route: Not Available
Planned Altitude: 32,000ft
Origin Wx: EBLG 061220Z 19014KT CAVOK 21/01 Q1020 NOSIG
Dest. Wx: KIAD 061152Z 34008KT 10SM R01R/2600V3500FT FEW035 BKN090 13/08 A3007 RMK AO2 SLP183 T01330083 10144 20089 53017
Notes:

Financial History
Total Freight: 1,163,556lbs
Average Load: 105,778lbs/flt
Fuel Used: 1,165,317lbs
Avg. Fuel Used: 105,938lbs/flt
Fuel Expense: $1,293,502
Avg. Fuel Expense: $117,591
Avg. Fuel Cost: $1.11/lbs
Total Gross Income: $4,974,087
Pilot Pay: $1,929
Total Expenses: $500,137
Total Revenue: $3,158,091
Average Revenue: $452,189.73